createdAt,value
2023-05-01T00:01:13.283Z,9.23
2023-05-01T00:03:39.900Z,7.28
2023-05-01T00:06:08.486Z,8.88
2023-05-01T00:08:34.912Z,11.65
2023-05-01T00:11:05.230Z,8.20
2023-05-01T00:13:32.820Z,8.40
2023-05-01T00:15:59.531Z,9.80
2023-05-01T00:18:26.243Z,8.68
2023-05-01T00:20:52.929Z,9.63
2023-05-01T00:23:19.656Z,7.60
2023-05-01T00:25:46.343Z,9.43
2023-05-01T00:28:13.012Z,7.53
2023-05-01T00:30:39.641Z,8.18
2023-05-01T00:33:06.215Z,8.60
2023-05-01T00:35:32.598Z,8.02
2023-05-01T00:37:59.442Z,6.82
2023-05-01T00:40:26.078Z,6.82
2023-05-01T00:42:52.657Z,7.88
2023-05-01T00:45:19.243Z,10.63
2023-05-01T00:47:46.743Z,9.07
2023-05-01T00:50:13.969Z,9.00
2023-05-01T00:52:40.902Z,8.75
2023-05-01T00:55:08.355Z,7.90
2023-05-01T00:57:35.108Z,8.35
2023-05-01T01:00:02.851Z,9.00
2023-05-01T01:02:32.104Z,8.23
2023-05-01T01:05:00.651Z,8.80
2023-05-01T01:08:00.765Z,9.93
2023-05-01T01:10:37.473Z,8.70
2023-05-01T01:13:25.404Z,9.23
2023-05-01T01:16:19.160Z,10.00
2023-05-01T01:19:19.908Z,8.00
2023-05-01T01:21:50.948Z,9.43
2023-05-01T01:24:46.622Z,8.57
2023-05-01T01:27:45.421Z,6.82
2023-05-01T01:30:41.598Z,8.63
2023-05-01T01:33:16.926Z,10.70
2023-05-01T01:35:53.758Z,9.10
2023-05-01T01:38:49.240Z,11.07
2023-05-01T01:41:24.173Z,8.52
2023-05-01T01:44:01.104Z,8.23
2023-05-01T01:46:29.952Z,7.75
2023-05-01T01:48:59.013Z,12.40
2023-05-01T01:51:29.622Z,11.23
2023-05-01T01:54:02.953Z,11.55
2023-05-01T01:56:31.115Z,8.55
2023-05-01T01:59:01.137Z,7.95
2023-05-01T02:01:29.345Z,7.43
2023-05-01T02:04:00.388Z,7.47
2023-05-01T02:06:29.100Z,11.15
2023-05-01T02:08:58.441Z,10.38
2023-05-01T02:11:26.291Z,10.35
2023-05-01T02:13:55.229Z,12.00
2023-05-01T02:16:23.222Z,9.60
2023-05-01T02:18:50.906Z,11.30
2023-05-01T02:21:19.012Z,14.80
2023-05-01T02:23:45.797Z,10.20
2023-05-01T02:26:16.449Z,9.43
2023-05-01T02:28:43.097Z,11.50
2023-05-01T02:31:10.274Z,11.70
2023-05-01T02:33:37.064Z,11.13
2023-05-01T02:36:03.853Z,8.85
2023-05-01T02:38:30.925Z,10.82
2023-05-01T02:40:58.700Z,8.27
2023-05-01T02:43:27.864Z,10.63
2023-05-01T02:45:55.268Z,11.77
2023-05-01T02:50:52.777Z,9.98
2023-05-01T02:53:20.350Z,8.10
2023-05-01T02:55:47.734Z,7.88
2023-05-01T03:00:47.221Z,10.43
2023-05-01T03:03:13.808Z,8.85
2023-05-01T03:05:40.580Z,11.40
2023-05-01T03:08:07.572Z,8.30
2023-05-01T03:10:35.095Z,10.90
2023-05-01T03:13:01.557Z,9.18
2023-05-01T03:15:27.862Z,10.60
2023-05-01T03:17:54.247Z,11.75
2023-05-01T03:20:20.600Z,10.18
2023-05-01T03:22:47.059Z,8.77
2023-05-01T03:25:13.433Z,10.50
2023-05-01T03:27:39.770Z,11.43
2023-05-01T03:30:07.000Z,12.73
2023-05-01T03:32:33.451Z,11.63
2023-05-01T03:34:59.861Z,9.27
2023-05-01T03:37:26.252Z,9.70
2023-05-01T03:39:52.557Z,11.13
2023-05-01T03:42:18.910Z,10.57
2023-05-01T03:44:45.569Z,11.10
2023-05-01T03:47:11.893Z,9.77
2023-05-01T03:49:38.197Z,10.23
2023-05-01T03:52:04.611Z,9.30
2023-05-01T03:54:30.944Z,13.25
2023-05-01T03:56:57.270Z,10.13
2023-05-01T03:59:23.600Z,10.23
2023-05-01T04:01:49.953Z,11.23
2023-05-01T04:04:16.401Z,11.40
2023-05-01T04:06:42.821Z,9.82
2023-05-01T04:09:09.182Z,9.82
2023-05-01T04:11:35.504Z,8.82
2023-05-01T04:14:01.993Z,9.90
2023-05-01T04:16:28.428Z,8.73
2023-05-01T04:18:54.798Z,9.52
2023-05-01T04:21:21.195Z,9.05
2023-05-01T04:23:47.521Z,11.45
2023-05-01T04:26:13.873Z,10.15
2023-05-01T04:28:40.180Z,9.43
2023-05-01T04:31:06.580Z,9.05
2023-05-01T04:33:32.946Z,8.20
2023-05-01T04:35:59.273Z,10.13
2023-05-01T04:38:25.688Z,9.27
2023-05-01T04:40:52.040Z,11.60
2023-05-01T04:43:18.358Z,13.10
2023-05-01T04:45:44.698Z,9.82
2023-05-01T04:48:11.132Z,8.57
2023-05-01T04:50:37.530Z,9.27
2023-05-01T04:53:03.886Z,10.35
2023-05-01T04:55:31.218Z,11.55
2023-05-01T04:57:57.720Z,9.50
2023-05-01T05:00:24.158Z,9.80
2023-05-01T05:02:50.571Z,8.95
2023-05-01T05:05:16.972Z,10.20
2023-05-01T05:07:43.300Z,7.80
2023-05-01T05:10:09.968Z,9.05
2023-05-01T05:12:36.326Z,9.43
2023-05-01T05:15:02.660Z,8.30
2023-05-01T05:17:29.050Z,9.45
2023-05-01T05:19:55.710Z,7.97
2023-05-01T05:22:22.276Z,11.73
2023-05-01T05:24:53.223Z,10.90
2023-05-01T05:27:19.594Z,9.43
2023-05-01T05:29:45.922Z,7.00
2023-05-01T05:32:12.280Z,11.07
2023-05-01T05:34:38.893Z,6.75
2023-05-01T05:37:05.266Z,9.55
2023-05-01T05:39:31.602Z,8.23
2023-05-01T05:41:57.972Z,6.72
2023-05-01T05:44:24.304Z,8.00
2023-05-01T05:46:50.646Z,8.77
2023-05-01T05:49:17.014Z,17.20
2023-05-01T05:51:43.399Z,9.13
2023-05-01T05:54:09.740Z,8.90
2023-05-01T05:56:36.068Z,9.25
2023-05-01T05:59:02.412Z,6.43
2023-05-01T06:01:29.229Z,8.38
2023-05-01T06:03:55.779Z,8.98
2023-05-01T06:06:22.757Z,8.05
2023-05-01T06:08:49.184Z,5.90
2023-05-01T06:11:15.528Z,8.65
2023-05-01T06:13:41.817Z,9.32
2023-05-01T06:16:08.321Z,9.05
2023-05-01T06:18:34.852Z,7.35
2023-05-01T06:21:01.204Z,8.45
2023-05-01T06:23:27.992Z,7.70
2023-05-01T06:25:54.333Z,6.25
2023-05-01T06:28:20.654Z,10.38
2023-05-01T06:30:47.119Z,6.88
2023-05-01T06:33:13.797Z,7.68
2023-05-01T06:35:40.266Z,6.47
2023-05-01T06:38:06.580Z,8.52
2023-05-01T06:40:33.003Z,6.57
2023-05-01T06:42:59.322Z,7.50
2023-05-01T06:45:25.650Z,6.03
2023-05-01T06:47:52.153Z,5.38
2023-05-01T06:50:18.502Z,7.97
2023-05-01T06:52:44.865Z,7.10
2023-05-01T06:55:11.233Z,6.97
2023-05-01T06:57:37.661Z,6.75
2023-05-01T07:00:04.430Z,7.72
2023-05-01T07:02:30.843Z,7.80
2023-05-01T07:04:57.428Z,6.90
2023-05-01T07:07:23.831Z,8.02
2023-05-01T07:09:50.207Z,7.60
2023-05-01T07:12:16.536Z,5.85
2023-05-01T07:14:42.917Z,5.28
2023-05-01T07:17:09.284Z,7.15
2023-05-01T07:19:35.658Z,8.90
2023-05-01T07:22:02.197Z,5.32
2023-05-01T07:24:28.550Z,5.28
2023-05-01T07:26:54.988Z,4.95
2023-05-01T07:29:21.322Z,8.70
2023-05-01T07:31:47.707Z,9.45
2023-05-01T07:34:14.055Z,7.00
2023-05-01T07:36:40.419Z,5.07
2023-05-01T07:39:06.743Z,7.30
2023-05-01T07:41:33.076Z,5.18
2023-05-01T07:43:59.660Z,6.50
2023-05-01T07:46:26.190Z,6.03
2023-05-01T07:48:52.771Z,6.57
2023-05-01T07:51:19.215Z,8.45
2023-05-01T07:53:45.541Z,5.43
2023-05-01T07:56:11.911Z,7.03
2023-05-01T07:58:38.355Z,9.07
2023-05-01T08:01:05.895Z,6.47
2023-05-01T08:03:32.425Z,8.20
2023-05-01T08:05:58.868Z,5.03
2023-05-01T08:08:25.282Z,5.55
2023-05-01T08:10:52.335Z,6.13
2023-05-01T08:13:18.967Z,6.88
2023-05-01T08:15:48.839Z,5.90
2023-05-01T08:18:15.312Z,5.57
2023-05-01T08:20:41.637Z,4.00
2023-05-01T08:23:07.964Z,5.93
2023-05-01T08:25:34.298Z,6.53
2023-05-01T08:28:00.669Z,6.20
2023-05-01T08:30:27.042Z,3.92
2023-05-01T08:32:53.434Z,4.72
2023-05-01T08:35:19.785Z,5.57
2023-05-01T08:37:46.140Z,5.18
2023-05-01T08:40:12.569Z,5.47
2023-05-01T08:42:39.076Z,7.85
2023-05-01T08:45:09.551Z,7.75
2023-05-01T08:47:40.514Z,8.43
2023-05-01T08:50:10.805Z,3.67
2023-05-01T08:52:40.785Z,5.30
2023-05-01T08:55:11.718Z,6.50
2023-05-01T08:57:39.038Z,6.75
2023-05-01T09:00:06.730Z,5.80
2023-05-01T09:02:35.047Z,6.95
2023-05-01T09:05:03.257Z,4.18
2023-05-01T09:07:29.919Z,4.88
2023-05-01T09:09:56.731Z,6.25
2023-05-01T09:12:25.754Z,4.65
2023-05-01T09:14:53.483Z,6.07
2023-05-01T09:17:21.585Z,3.85
2023-05-01T09:19:49.972Z,5.38
2023-05-01T09:22:18.761Z,5.07
2023-05-01T09:24:45.497Z,5.10
2023-05-01T09:27:13.360Z,6.22
2023-05-01T09:29:44.943Z,5.63
2023-05-01T09:32:26.246Z,5.30
2023-05-01T09:34:53.080Z,5.10
2023-05-01T09:37:28.524Z,4.15
2023-05-01T09:40:12.177Z,4.53
2023-05-01T09:42:52.929Z,3.92
2023-05-01T09:45:20.053Z,4.43
2023-05-01T09:47:47.169Z,5.38
2023-05-01T09:50:34.756Z,4.82
2023-05-01T09:53:02.452Z,4.93
2023-05-01T09:55:28.885Z,7.70
2023-05-01T09:57:55.310Z,7.47
2023-05-01T10:00:21.985Z,7.07
2023-05-01T10:02:49.828Z,4.65
2023-05-01T10:05:16.771Z,6.97
2023-05-01T10:10:23.415Z,6.60
2023-05-01T10:15:25.292Z,6.88
2023-05-01T10:17:54.332Z,7.93
2023-05-01T10:20:21.568Z,5.85
2023-05-01T10:22:48.280Z,6.35
2023-05-01T10:27:42.393Z,6.35
2023-05-01T10:30:10.109Z,7.88
2023-05-01T10:32:40.280Z,9.90
2023-05-01T10:35:19.179Z,8.52
2023-05-01T10:37:51.617Z,7.85
2023-05-01T10:40:40.376Z,8.40
2023-05-01T10:43:30.595Z,6.03
2023-05-01T10:46:18.085Z,6.63
2023-05-01T10:48:47.883Z,8.02
2023-05-01T10:51:20.003Z,5.40
2023-05-01T10:54:10.087Z,5.15
2023-05-01T10:56:58.968Z,8.95
2023-05-01T10:59:26.232Z,4.57
2023-05-01T11:01:53.436Z,8.10
2023-05-01T11:04:23.058Z,5.43
2023-05-01T11:07:02.032Z,5.97
2023-05-01T11:09:42.001Z,6.55
2023-05-01T11:12:10.216Z,5.93
2023-05-01T11:14:55.261Z,5.20
2023-05-01T11:17:52.598Z,6.13
2023-05-01T11:20:24.916Z,5.60
2023-05-01T11:22:56.111Z,4.78
2023-05-01T11:25:23.720Z,8.30
2023-05-01T11:28:10.980Z,5.03
2023-05-01T11:30:38.764Z,6.85
2023-05-01T11:33:07.119Z,10.20
2023-05-01T11:35:36.074Z,9.13
2023-05-01T11:38:02.802Z,6.38
2023-05-01T11:43:07.662Z,6.65
2023-05-01T11:45:37.824Z,6.07
2023-05-01T11:48:05.850Z,5.18
2023-05-01T11:50:33.885Z,6.53
2023-05-01T11:53:00.347Z,6.47
2023-05-01T11:55:34.883Z,6.30
2023-05-01T11:58:01.917Z,7.10
2023-05-01T12:00:31.059Z,5.53
2023-05-01T12:03:08.052Z,6.88
2023-05-01T12:05:36.616Z,9.13
2023-05-01T12:08:14.957Z,6.43
2023-05-01T12:10:43.653Z,6.80
2023-05-01T12:13:13.124Z,6.90
2023-05-01T12:15:45.310Z,6.55
2023-05-01T12:18:13.715Z,5.63
2023-05-01T12:20:49.264Z,6.38
2023-05-01T12:23:16.693Z,5.90
2023-05-01T12:25:44.606Z,6.65
2023-05-01T12:28:15.405Z,5.40
2023-05-01T12:30:43.951Z,7.07
2023-05-01T12:33:14.904Z,7.45
2023-05-01T12:35:43.009Z,5.20
2023-05-01T12:38:16.744Z,5.88
2023-05-01T12:40:57.632Z,6.10
2023-05-01T12:43:37.325Z,6.95
2023-05-01T12:46:05.897Z,6.43
2023-05-01T12:48:33.185Z,6.20
2023-05-01T12:51:00.828Z,5.28
2023-05-01T12:53:29.033Z,7.03
2023-05-01T12:55:58.665Z,7.47
2023-05-01T12:58:37.711Z,4.68
2023-05-01T13:01:05.753Z,7.80
2023-05-01T13:03:34.760Z,5.80
2023-05-01T13:06:03.813Z,9.23
2023-05-01T13:08:36.547Z,4.82
2023-05-01T13:11:12.053Z,5.38
2023-05-01T13:13:39.270Z,6.15
2023-05-01T13:16:11.856Z,6.65
2023-05-01T13:18:50.396Z,5.03
2023-05-01T13:21:21.200Z,5.22
2023-05-01T13:23:59.449Z,7.78
2023-05-01T13:26:35.837Z,7.00
2023-05-01T13:29:04.277Z,6.35
2023-05-01T13:31:31.342Z,5.60
2023-05-01T13:33:59.644Z,6.38
2023-05-01T13:36:31.765Z,5.93
2023-05-01T13:38:58.280Z,5.00
2023-05-01T13:41:26.396Z,8.15
2023-05-01T13:43:54.646Z,6.65
2023-05-01T13:46:23.840Z,5.75
2023-05-01T13:48:50.896Z,7.72
2023-05-01T13:51:26.987Z,6.10
2023-05-01T13:53:56.183Z,5.55
2023-05-01T13:56:23.970Z,8.80
2023-05-01T13:58:50.774Z,5.25
2023-05-01T14:01:22.776Z,6.07
2023-05-01T14:03:50.072Z,5.30
2023-05-01T14:06:19.438Z,7.18
2023-05-01T14:08:47.504Z,9.05
2023-05-01T14:11:15.094Z,5.80
2023-05-01T14:13:44.606Z,5.43
2023-05-01T14:16:22.010Z,5.25
2023-05-01T14:18:48.610Z,5.25
2023-05-01T14:21:16.924Z,7.82
2023-05-01T14:23:43.349Z,4.68
2023-05-01T14:26:11.473Z,5.25
2023-05-01T14:28:42.235Z,4.78
2023-05-01T14:31:08.988Z,5.15
2023-05-01T14:33:41.935Z,7.78
2023-05-01T14:36:09.367Z,6.68
2023-05-01T14:38:36.153Z,7.03
2023-05-01T14:43:31.118Z,5.85
2023-05-01T14:45:57.611Z,6.03
2023-05-01T14:48:35.233Z,6.47
2023-05-01T14:51:04.129Z,5.22
2023-05-01T14:53:32.709Z,4.90
2023-05-01T14:55:59.157Z,7.32
2023-05-01T14:58:25.926Z,6.55
2023-05-01T15:03:19.448Z,7.53
2023-05-01T15:05:46.383Z,4.93
2023-05-01T15:08:13.157Z,6.50
2023-05-01T15:10:39.968Z,5.43
2023-05-01T15:13:06.532Z,6.82
2023-05-01T15:15:35.229Z,6.28
2023-05-01T15:18:01.771Z,7.50
2023-05-01T15:20:29.305Z,5.78
2023-05-01T15:22:56.902Z,5.68
2023-05-01T15:25:23.569Z,6.68
2023-05-01T15:30:16.487Z,7.35
2023-05-01T15:32:43.608Z,5.60
2023-05-01T15:35:10.771Z,9.90
2023-05-01T15:37:37.274Z,4.53
2023-05-01T15:40:05.043Z,6.30
2023-05-01T15:42:33.090Z,6.97
2023-05-01T15:45:00.152Z,5.10
2023-05-01T15:47:26.985Z,5.43
2023-05-01T15:49:54.021Z,5.38
2023-05-01T15:52:20.434Z,5.03
2023-05-01T15:54:47.156Z,5.53
2023-05-01T15:59:40.869Z,6.13
2023-05-01T16:02:07.932Z,5.78
2023-05-01T16:04:34.974Z,7.28
2023-05-01T16:07:02.764Z,5.38
2023-05-01T16:09:32.878Z,8.23
2023-05-01T16:12:01.941Z,6.13
2023-05-01T16:14:28.579Z,5.68
2023-05-01T16:16:55.040Z,5.20
2023-05-01T16:19:21.708Z,6.15
2023-05-01T16:21:48.125Z,5.10
2023-05-01T16:24:14.952Z,5.68
2023-05-01T16:29:08.517Z,7.68
2023-05-01T16:31:39.711Z,6.85
2023-05-01T16:34:07.233Z,5.13
2023-05-01T16:36:40.191Z,7.13
2023-05-01T16:39:07.884Z,5.18
2023-05-01T16:41:50.593Z,5.60
2023-05-01T16:44:18.660Z,8.05
2023-05-01T16:46:53.849Z,5.93
2023-05-01T16:49:20.662Z,6.60
2023-05-01T16:54:13.752Z,7.95
2023-05-01T16:56:40.273Z,6.20
2023-05-01T16:59:06.947Z,5.57
2023-05-01T17:01:34.591Z,65.15
2023-05-01T17:04:01.344Z,6.50
2023-05-01T17:06:27.776Z,5.38
2023-05-01T17:08:54.273Z,6.80
2023-05-01T17:11:21.544Z,8.60
2023-05-01T17:13:48.266Z,6.47
2023-05-01T17:16:14.787Z,7.03
2023-05-01T17:18:41.370Z,8.63
2023-05-01T17:21:08.315Z,7.30
2023-05-01T17:23:34.772Z,6.38
2023-05-01T17:26:01.329Z,7.10
2023-05-01T17:28:28.104Z,5.55
2023-05-01T17:30:54.820Z,6.53
2023-05-01T17:33:22.231Z,6.43
2023-05-01T17:35:48.720Z,7.25
2023-05-01T17:38:17.821Z,6.55
2023-05-01T17:40:44.431Z,7.22
2023-05-01T17:43:11.080Z,36.05
2023-05-01T17:45:37.555Z,16.77
2023-05-01T17:48:04.462Z,9.48
2023-05-01T17:50:32.236Z,8.90
2023-05-01T17:52:58.682Z,7.03
2023-05-01T17:55:25.139Z,9.25
2023-05-01T17:57:52.217Z,8.85
2023-05-01T18:00:19.188Z,9.20
2023-05-01T18:02:45.699Z,9.57
2023-05-01T18:05:12.742Z,10.30
2023-05-01T18:07:39.291Z,8.90
2023-05-01T18:10:06.414Z,10.73
2023-05-01T18:12:32.842Z,10.40
2023-05-01T18:14:59.318Z,8.63
2023-05-01T18:17:25.834Z,10.52
2023-05-01T18:19:52.377Z,9.45
2023-05-01T18:22:18.830Z,11.73
2023-05-01T18:24:45.273Z,8.85
2023-05-01T18:27:12.453Z,8.30
2023-05-01T18:29:38.942Z,7.30
2023-05-01T18:32:05.771Z,7.53
2023-05-01T18:34:32.327Z,11.13
2023-05-01T18:36:58.756Z,10.85
2023-05-01T18:39:25.291Z,9.35
2023-05-01T18:41:54.174Z,9.27
2023-05-01T18:44:20.747Z,9.10
2023-05-01T18:46:47.257Z,8.60
2023-05-01T18:49:13.816Z,8.75
2023-05-01T18:51:40.261Z,9.90
2023-05-01T18:54:06.767Z,10.05
2023-05-01T18:56:33.512Z,8.52
2023-05-01T19:01:27.185Z,13.40
2023-05-01T19:03:53.719Z,12.18
2023-05-01T19:06:20.151Z,12.30
2023-05-01T19:08:46.619Z,12.60
2023-05-01T19:11:13.049Z,12.10
2023-05-01T19:13:39.499Z,10.60
2023-05-01T19:16:06.154Z,15.10
2023-05-01T19:18:32.619Z,18.92
2023-05-01T19:20:59.098Z,16.13
2023-05-01T19:23:25.485Z,14.18
2023-05-01T19:25:51.983Z,17.70
2023-05-01T19:28:18.421Z,18.77
2023-05-01T19:30:44.924Z,13.25
2023-05-01T19:33:11.401Z,13.65
2023-05-01T19:35:37.944Z,12.02
2023-05-01T19:38:04.388Z,15.57
2023-05-01T19:40:31.716Z,15.20
2023-05-01T19:42:58.116Z,17.38
2023-05-01T19:45:24.549Z,17.13
2023-05-01T19:47:51.155Z,14.90
2023-05-01T19:50:17.962Z,14.90
2023-05-01T19:52:44.383Z,16.05
2023-05-01T19:55:11.057Z,28.90
2023-05-01T19:57:37.461Z,20.45
2023-05-01T20:00:10.895Z,15.23
2023-05-01T20:02:37.878Z,17.35
2023-05-01T20:05:05.003Z,17.67
2023-05-01T20:07:31.690Z,15.65
2023-05-01T20:09:58.644Z,17.73
2023-05-01T20:12:25.556Z,15.60
2023-05-01T20:14:52.082Z,19.23
2023-05-01T20:17:18.789Z,15.95
2023-05-01T20:19:45.570Z,16.48
2023-05-01T20:22:12.369Z,15.90
2023-05-01T20:24:39.091Z,17.40
2023-05-01T20:27:05.842Z,17.55
2023-05-01T20:29:32.570Z,21.88
2023-05-01T20:32:04.388Z,20.67
2023-05-01T20:34:34.093Z,21.58
2023-05-01T20:37:00.565Z,16.77
2023-05-01T20:39:26.983Z,17.00
2023-05-01T20:41:53.854Z,14.80
2023-05-01T20:44:20.261Z,16.70
2023-05-01T20:46:46.855Z,16.50
2023-05-01T20:49:15.921Z,15.68
2023-05-01T20:51:42.999Z,17.00
2023-05-01T20:54:09.673Z,14.77
2023-05-01T20:56:36.111Z,17.17
2023-05-01T20:59:04.502Z,15.10
2023-05-01T21:01:31.555Z,18.25
2023-05-01T21:04:00.011Z,17.40
2023-05-01T21:06:26.919Z,18.40
2023-05-01T21:08:53.409Z,16.05
2023-05-01T21:11:20.108Z,18.63
2023-05-01T21:13:46.542Z,17.95
2023-05-01T21:16:14.892Z,18.42
2023-05-01T21:18:41.614Z,21.23
2023-05-01T21:21:08.927Z,24.88
2023-05-01T21:23:36.320Z,35.40
2023-05-01T21:26:03.005Z,30.45
2023-05-01T21:28:29.910Z,21.67
2023-05-01T21:33:23.208Z,23.33
2023-05-01T21:35:49.666Z,18.30
2023-05-01T21:38:16.770Z,24.15
2023-05-01T21:40:43.646Z,27.88
2023-05-01T21:43:10.069Z,23.85
2023-05-01T21:45:39.199Z,25.90
2023-05-01T21:48:07.520Z,21.25
2023-05-01T21:50:37.154Z,21.75
2023-05-01T21:53:05.355Z,20.13
2023-05-01T21:55:31.913Z,21.35
2023-05-01T21:57:58.738Z,19.10
2023-05-01T22:00:25.695Z,20.92
2023-05-01T22:05:21.537Z,19.77
2023-05-01T22:07:49.104Z,19.67
2023-05-01T22:10:21.683Z,21.70
2023-05-01T22:12:48.396Z,20.17
2023-05-01T22:15:16.122Z,20.73
2023-05-01T22:17:42.905Z,19.63
2023-05-01T22:20:09.867Z,19.60
2023-05-01T22:25:04.200Z,20.60
2023-05-01T22:27:31.358Z,18.98
2023-05-01T22:29:58.213Z,17.70
2023-05-01T22:34:51.826Z,17.42
2023-05-01T22:37:18.513Z,18.83
2023-05-01T22:39:45.332Z,23.75
2023-05-01T22:42:13.263Z,17.00
2023-05-01T22:44:40.001Z,14.85
2023-05-01T22:47:06.449Z,17.33
2023-05-01T22:49:32.909Z,17.23
2023-05-01T22:51:59.630Z,16.20
2023-05-01T22:54:26.328Z,19.63
2023-05-01T22:56:52.935Z,19.33
2023-05-01T22:59:19.989Z,18.40
2023-05-01T23:01:46.703Z,19.95
2023-05-01T23:04:13.911Z,21.42
2023-05-01T23:06:41.059Z,16.98
2023-05-01T23:11:34.859Z,18.50
2023-05-01T23:14:01.768Z,17.33
2023-05-01T23:18:58.972Z,19.20
2023-05-01T23:21:25.941Z,17.13
2023-05-01T23:23:52.775Z,21.92
2023-05-01T23:26:27.951Z,18.55
2023-05-01T23:28:55.007Z,19.55
2023-05-01T23:33:50.744Z,18.55
2023-05-01T23:36:18.033Z,20.73
2023-05-01T23:38:44.786Z,21.38
2023-05-01T23:41:12.040Z,18.45
2023-05-01T23:43:38.724Z,17.25
2023-05-01T23:46:06.194Z,16.65
2023-05-01T23:48:33.885Z,21.48
2023-05-01T23:51:00.681Z,18.83
2023-05-01T23:53:27.293Z,21.02
2023-05-01T23:55:53.768Z,20.25
2023-05-01T23:58:20.524Z,20.17
